PASY Airport Information

Runway Information
Runway 10 Length 10000 ft width 150 ft
Elevation 98 ft Threshold 0 ft Heading 107
Runway 28 Length 10000 ft Width 150 ft
Elevation 87 ft Threshold 0 ft Heading 287
Airport Frequencies
Type ASOS Name ASOS Frequency 135.65 MHZ
Type CNTR Name ANCHORAGE Frequency 119.1 MHZ
Type CTAF Name CTAF Frequency 127.2 MHZ
Airport Navaids
Type VORTAC Name Shemya Frequency 109000 KHZ
Type NDB Name Shemya Frequency 403 KHZ
Airport Weather Information & NOTAM
ADDS - METARS form results

(2100 UTC 18 December 2018)
Data provider http://aviationweather.gov/metar/data/
 
METAR text: PASY 182051Z 24018KT 7SM -RASN SCT009 BKN015 OVC025 02/02 A2918 RMK AO2A SNE21SNB29 CIG 008V028 BKN025 V OVC SLP885
Conditions at: PASY (EARECKSON/SHEMYA, AK, US) observed 2051 UTC 18 December 2018
Temperature: 2.0°C (36°F)
Dewpoint: 2.0°C (36°F) [RH = 100%]
Pressure (altimeter): 29.18 inches Hg (988.2 mb)
[Sea-level pressure:  988.5 mb]
Winds: from the WSW (240 degrees) at 21 MPH (18 knots; 9.3 m/s)
Visibility: 7 miles (11 km)
Ceiling: 1500 feet AGL
Clouds: scattered clouds at 900 feet AGL
broken clouds at 1500 feet AGL
overcast cloud deck at 2500 feet AGL
Weather: -RA -SN  (light rain, light snow)

METAR text: PASY 182041Z AUTO 24023G34KT 4SM -SN BR BKN008 OVC025 02/01 A2918 RMK AO2 SNE21SNB29 CIG 007V009 SLP885 FZRANO $
Conditions at: PASY (EARECKSON/SHEMYA, AK, US) observed 2041 UTC 18 December 2018
Temperature: 2.0°C (36°F)
Dewpoint: 1.0°C (34°F) [RH = 93%]
Pressure (altimeter): 29.18 inches Hg (988.2 mb)
[Sea-level pressure:  988.5 mb]
Winds: from the WSW (240 degrees) at 26 MPH (23 knots; 11.8 m/s)
gusting to 39 MPH (34 knots; 17.5 m/s)
Visibility: 4 miles ( 6 km)
Ceiling: 800 feet AGL
Clouds: broken clouds at 800 feet AGL
overcast cloud deck at 2500 feet AGL
Weather: -SN BR  (light snow, mist)
SOME DATA ABOVE MAY BE INACCURATE!!!
"$" is an indication the sensor requires maintenance

METAR text: PASY 182031Z AUTO 22027G30KT 5SM -SN BR BKN007 OVC011 03/03 A2918 RMK AO2 WSHFT 17 SNE21SNB29 BKN V OVC SLP885 $
Conditions at: PASY (EARECKSON/SHEMYA, AK, US) observed 2031 UTC 18 December 2018
Temperature: 3.0°C (37°F)
Dewpoint: 3.0°C (37°F) [RH = 100%]
Pressure (altimeter): 29.18 inches Hg (988.2 mb)
[Sea-level pressure:  988.5 mb]
Winds: from the SW (220 degrees) at 31 MPH (27 knots; 13.9 m/s)
gusting to 34 MPH (30 knots; 15.4 m/s)
Visibility: 5 miles ( 8 km)
Ceiling: 700 feet AGL
Clouds: broken clouds at 700 feet AGL
overcast cloud deck at 1100 feet AGL
Weather: -SN BR  (light snow, mist)
SOME DATA ABOVE MAY BE INACCURATE!!!
"$" is an indication the sensor requires maintenance

METAR text: PASY 182029Z AUTO 19021G29KT 7SM -SN BKN007 OVC011 03/03 A2917 RMK AO2 SNE21SNB29 BKN V OVC SLP882 $
Conditions at: PASY (EARECKSON/SHEMYA, AK, US) observed 2029 UTC 18 December 2018
Temperature: 3.0°C (37°F)
Dewpoint: 3.0°C (37°F) [RH = 100%]
Pressure (altimeter): 29.17 inches Hg (987.9 mb)
[Sea-level pressure:  988.2 mb]
Winds: from the S (190 degrees) at 24 MPH (21 knots; 10.8 m/s)
gusting to 33 MPH (29 knots; 14.9 m/s)
Visibility: 7 miles (11 km)
Ceiling: 700 feet AGL
Clouds: broken clouds at 700 feet AGL
overcast cloud deck at 1100 feet AGL
Weather: -SN  (light snow)
SOME DATA ABOVE MAY BE INACCURATE!!!
"$" is an indication the sensor requires maintenance

METAR text: PASY 182021Z 18021G30KT 3SM BR OVC007 03/03 A2917 RMK AO2A SNE21 SLP882 $
Conditions at: PASY (EARECKSON/SHEMYA, AK, US) observed 2021 UTC 18 December 2018
Temperature: 3.0°C (37°F)
Dewpoint: 3.0°C (37°F) [RH = 100%]
Pressure (altimeter): 29.17 inches Hg (987.9 mb)
[Sea-level pressure:  988.2 mb]
Winds: from the S (180 degrees) at 24 MPH (21 knots; 10.8 m/s)
gusting to 34 MPH (30 knots; 15.4 m/s)
Visibility: 3 miles ( 5 km)
Ceiling: 700 feet AGL
Clouds: overcast cloud deck at 700 feet AGL
Weather: BR  (mist)
SOME DATA ABOVE MAY BE INACCURATE!!!
"$" is an indication the sensor requires maintenance

METAR text: PASY 182008Z AUTO 17025G33KT 6SM -SN BR OVC007 03/02 A2918 RMK AO2 SLP885
Conditions at: PASY (EARECKSON/SHEMYA, AK, US) observed 2008 UTC 18 December 2018
Temperature: 3.0°C (37°F)
Dewpoint: 2.0°C (36°F) [RH = 93%]
Pressure (altimeter): 29.18 inches Hg (988.2 mb)
[Sea-level pressure:  988.5 mb]
Winds: from the S (170 degrees) at 29 MPH (25 knots; 12.9 m/s)
gusting to 38 MPH (33 knots; 17.0 m/s)
Visibility: 6 miles (10 km)
Ceiling: 700 feet AGL
Clouds: overcast cloud deck at 700 feet AGL
Weather: -SN BR  (light snow, mist)

Forecast for: AMD
Text: TAF AMD PASY 181946Z 1819/1920 15040G50KT 4800 -SN BKN007 OVC028 620078 530003 550303 QNH2918INS
Forecast period: 1900 to 2100 UTC 18 December 2018
Forecast type: FROM: standard forecast or significant change
Winds: from the SSE (150 degrees) at 46 MPH (40 knots; 20.6 m/s)
gusting to 57 MPH (50 knots; 25.7 m/s)
Visibility: 2.98 miles (4.80 km)
Ceiling: 700 feet AGL
Clouds: broken clouds at 700 feet AGL
overcast cloud deck at 2800 feet AGL
Weather: -SN  (light snow)
Text: TEMPO 1819/1822 3200 SN SCT007 OVC015 620159
Forecast period: 1900 to 2200 UTC 18 December 2018
Forecast type: TEMPORARY: The following changes expected for less than half the time period
Winds: from the SSW (201 degrees) at 68 MPH (59 knots; 30.3 m/s)
Visibility: 1.99 miles (3.20 km)
Ceiling: 1500 feet AGL
Clouds: scattered clouds at 700 feet AGL
overcast cloud deck at 1500 feet AGL
Weather: SN  (moderate snow)
Text: BECMG 1821/1822 24025G35KT 3200 -RASN OVC007 620076 510003 QNH2917INS
Forecast period: 2100 UTC 18 December 2018 to 0300 UTC 19 December 2018
Forecast type: BECOMING: Conditions expected to become as follows by 2200 UTC 18 December 2018
Winds: from the WSW (240 degrees) at 29 MPH (25 knots; 12.9 m/s)
gusting to 40 MPH (35 knots; 18.0 m/s)
Visibility: 1.99 miles (3.20 km)
Ceiling: 700 feet AGL
Clouds: overcast cloud deck at 700 feet AGL
Weather: -RA -SN  (light rain, light snow)
Text: TEMPO 1822/1903 0800 SN OVC015 620155
Forecast period: 2200 UTC 18 December 2018 to 0300 UTC 19 December 2018
Forecast type: TEMPORARY: The following changes expected for less than half the time period
Winds: from the SSW (201 degrees) at 63 MPH (55 knots; 28.3 m/s)
Visibility: 0.50 miles (0.80 km)
Ceiling: 1500 feet AGL
Clouds: overcast cloud deck at 1500 feet AGL
Weather: SN  (moderate snow)
Text: BECMG 1903/1904 26020G30KT 9999 NSW BKN030 620304 510002 QNH2926INS
Forecast period: 0300 to 1300 UTC 19 December 2018
Forecast type: BECOMING: Conditions expected to become as follows by 0400 UTC 19 December 2018
Winds: from the W (260 degrees) at 23 MPH (20 knots; 10.3 m/s)
gusting to 34 MPH (30 knots; 15.4 m/s)
Visibility: 6 or more miles 10+ km)
Ceiling: 3000 feet AGL
Clouds: broken clouds at 3000 feet AGL
Weather: NSW  (no significant weather)
Text: BECMG 1913/1914 27020G30KT 0800 SN BKN015 620155 510002 QNH2926INS TX03/1913Z TNM01/1821Z
Forecast period: 1300 to 2000 UTC 19 December 2018
Forecast type: BECOMING: Conditions expected to become as follows by 1400 UTC 19 December 2018
Winds: from the W (270 degrees) at 23 MPH (20 knots; 10.3 m/s)
gusting to 34 MPH (30 knots; 15.4 m/s)
Visibility: 0.50 miles (0.80 km)
Ceiling: 1500 feet AGL
Clouds: broken clouds at 1500 feet AGL
Weather: SN  (moderate snow)